Map

Track Data

SID SEASON NUMBER BASIN SUBBASIN NAME ISO_TIME NATURE LAT LON WMO_WIND WMO_PRES WMO_AGENCY TRACK_TYPE DIST2LAND LANDFALL IFLAG USA_AGENCY USA_ATCF_ID USA_LAT USA_LON USA_RECORD USA_STATUS USA_WIND USA_PRES USA_SSHS USA_R34_NE USA_R34_SE USA_R34_SW USA_R34_NW USA_R50_NE USA_R50_SE USA_R50_SW USA_R50_NW USA_R64_NE USA_R64_SE USA_R64_SW USA_R64_NW USA_POCI USA_ROCI USA_RMW USA_EYE TOKYO_LAT TOKYO_LON TOKYO_GRADE TOKYO_WIND TOKYO_PRES TOKYO_R50_DIR TOKYO_R50_LONG TOKYO_R50_SHORT TOKYO_R30_DIR TOKYO_R30_LONG TOKYO_R30_SHORT TOKYO_LAND CMA_LAT CMA_LON CMA_CAT CMA_WIND CMA_PRES HKO_LAT HKO_LON HKO_CAT HKO_WIND HKO_PRES NEWDELHI_LAT NEWDELHI_LON NEWDELHI_GRADE NEWDELHI_WIND NEWDELHI_PRES NEWDELHI_CI NEWDELHI_DP NEWDELHI_POCI REUNION_LAT REUNION_LON REUNION_TYPE REUNION_WIND REUNION_PRES REUNION_TNUM REUNION_CI REUNION_RMW REUNION_R34_NE REUNION_R34_SE REUNION_R34_SW REUNION_R34_NW REUNION_R50_NE REUNION_R50_SE REUNION_R50_SW REUNION_R50_NW REUNION_R64_NE REUNION_R64_SE REUNION_R64_SW REUNION_R64_NW BOM_LAT BOM_LON BOM_TYPE BOM_WIND BOM_PRES BOM_TNUM BOM_CI BOM_RMW BOM_R34_NE BOM_R34_SE BOM_R34_SW BOM_R34_NW BOM_R50_NE BOM_R50_SE BOM_R50_SW BOM_R50_NW BOM_R64_NE BOM_R64_SE BOM_R64_SW BOM_R64_NW BOM_ROCI BOM_POCI BOM_EYE BOM_POS_METHOD BOM_PRES_METHOD NADI_LAT NADI_LON NADI_CAT NADI_WIND NADI_PRES WELLINGTON_LAT WELLINGTON_LON WELLINGTON_WIND WELLINGTON_PRES DS824_LAT DS824_LON DS824_STAGE DS824_WIND DS824_PRES TD9636_LAT TD9636_LON TD9636_STAGE TD9636_WIND TD9636_PRES TD9635_LAT TD9635_LON TD9635_WIND TD9635_PRES TD9635_ROCI NEUMANN_LAT NEUMANN_LON NEUMANN_CLASS NEUMANN_WIND NEUMANN_PRES MLC_LAT MLC_LON MLC_CLASS MLC_WIND MLC_PRES USA_GUST BOM_GUST BOM_GUST_PER REUNION_GUST REUNION_GUST_PER USA_SEAHGT USA_SEARAD_NE USA_SEARAD_SE USA_SEARAD_SW USA_SEARAD_NW STORM_SPEED STORM_DIR
1974324S24156 1975 133 SP EA NOT_NAMED 1974-11-19 12:00:00 TS -24.0000 156.000 main 285 285 O________OO___ jtwc_sh SH011975 -24.0000 156.000 -1 -24.0000 156.000 TC -24.0000 156.000 2 3 68
1974324S24156 1975 133 SP EA NOT_NAMED 1974-11-19 15:00:00 TS -23.9516 156.136 main 294 294 P________PP___ SH011975 -23.9675 156.120 -1 -23.9675 156.120 TC -23.9197 156.167 2 3 67
1974324S24156 1975 133 SP EA NOT_NAMED 1974-11-19 18:00:00 TS -23.8772 156.323 main 318 318 O________OP___ jtwc_sh SH011975 -23.9000 156.300 -1 -23.9000 156.300 TC -23.8316 156.368 2 5 66
1974324S24156 1975 133 SP EA NOT_NAMED 1974-11-19 21:00:00 TS -23.7575 156.605 main 350 350 P________PP___ SH011975 -23.7723 156.590 -1 -23.7723 156.590 TC -23.7278 156.634 2 7 66
1974324S24156 1975 133 SP EA NOT_NAMED 1974-11-20 00:00:00 TS -23.6000 157.000 main 396 396 O________OO___ jtwc_sh SH011975 -23.6000 157.000 -1 -23.6000 157.000 TC -23.6000 157.000 2 9 68
1974324S24156 1975 133 SP EA NOT_NAMED 1974-11-20 03:00:00 TS -23.4278 157.503 main 452 452 P________PP___ SH011975 -23.4225 157.512 -1 -23.4225 157.512 TC -23.4385 157.485 2 11 69
1974324S24156 1975 133 SP EA NOT_NAMED 1974-11-20 06:00:00 TS -23.2095 158.086 main 517 517 O________OP___ jtwc_sh SH011975 -23.2000 158.100 -1 -23.2000 158.100 TC -23.2284 158.059 2 12 67
1974324S24156 1975 133 SP EA NOT_NAMED 1974-11-20 09:00:00 TS -22.9579 158.687 main 582 550 P________PP___ SH011975 -22.9598 158.692 -1 -22.9598 158.692 TC -22.9540 158.679 2 13 61
1974324S24156 1975 133 SP EA NOT_NAMED 1974-11-20 12:00:00 TS -22.6000 159.300 main 550 470 O________OO___ jtwc_sh SH011975 -22.6000 159.300 -1 -22.6000 159.300 TC -22.6000 159.300 2 15 51
1974324S24156 1975 133 SP EA NOT_NAMED 1974-11-20 15:00:00 TS -22.0421 159.913 main 465 387 P________PP___ SH011975 -22.0224 159.916 -1 -22.0224 159.916 TC -22.0813 159.909 2 16 44
1974324S24156 1975 133 SP MM NOT_NAMED 1974-11-20 18:00:00 TS -21.4327 160.500 main 383 319 O________OP___ jtwc_sh SH011975 -21.4000 160.500 -1 -21.4000 160.500 TC -21.4981 160.501 2 16 43
1974324S24156 1975 133 SP MM NOT_NAMED 1974-11-20 21:00:00 TS -20.8969 161.044 main 319 261 P________PP___ SH011975 -20.8750 161.045 -1 -20.8750 161.045 TC -20.9408 161.043 2 13 45
1974324S24156 1975 133 SP MM NOT_NAMED 1974-11-21 00:00:00 TS -20.5000 161.500 main 261 229 O________OO___ jtwc_sh SH011975 -20.5000 161.500 -1 -20.5000 161.500 TC -20.5000 161.500 2 9 52
1974324S24156 1975 133 SP MM NOT_NAMED 1974-11-21 03:00:00 TS -20.3234 161.838 main 229 198 P________PP___ SH011975 -20.3398 161.844 -1 -20.3398 161.844 TC -20.2905 161.826 2 6 67
1974324S24156 1975 133 SP MM NOT_NAMED 1974-11-21 06:00:00 TS -20.2687 162.091 main 198 177 O________OP___ jtwc_sh SH011975 -20.3000 162.100 -1 -20.3000 162.100 TC -20.2062 162.072 2 4 77
1974324S24156 1975 133 SP MM NOT_NAMED 1974-11-21 09:00:00 TS -20.2262 162.294 main 177 156 P________PP___ SH011975 -20.2424 162.300 -1 -20.2424 162.300 TC -20.1939 162.283 2 4 80
1974324S24156 1975 133 SP MM NOT_NAMED 1974-11-21 12:00:00 TS -20.2000 162.500 main 156 125 O________OO___ jtwc_sh SH011975 -20.2000 162.500 -1 -20.2000 162.500 TC -20.2000 162.500 2 5 82
1974324S24156 1975 133 SP MM NOT_NAMED 1974-11-21 15:00:00 TS -20.1605 162.776 main 125 96 P________PP___ SH011975 -20.1500 162.785 -1 -20.1500 162.785 TC -20.1813 162.757 2 6 81
1974324S24156 1975 133 SP MM NOT_NAMED 1974-11-21 18:00:00 TS -20.1120 163.084 main 96 66 O________OP___ jtwc_sh SH011975 -20.1000 163.100 -1 -20.1000 163.100 TC -20.1360 163.051 2 6 80
1974324S24156 1975 133 SP MM NOT_NAMED 1974-11-21 21:00:00 TS -20.0576 163.393 main 66 45 P________PP___ SH011975 -20.0501 163.405 -1 -20.0501 163.405 TC -20.0727 163.370 2 6 79
1974324S24156 1975 133 SP MM NOT_NAMED 1974-11-22 00:00:00 TS -20.0000 163.700 main 45 O________OO___ jtwc_sh SH011975 -20.0000 163.700 -1 -20.0000 163.700 TC -20.0000 163.700 2 6 79

Digital Typhoon Data and Search

About IBTrACS Database

This database is a web-friendly format of International Best Track Archive for Climate Stewardship (IBTrACS), a global best track data archive curated by NOAA dating back to 1842.

Updated: 2021-10-27